Aeroporto :
LOGIN :

Iscrizione | Disclaimer

   EN    FR    IT 

 










Sommario :    VFR   VFR Marginale   IFR   IFR Intensivo   IFR Molto Intensivo
Visibilità : 
Base nubi : 
>= 8 km
>= 3000ft
5 / 8 km
1000 / 3000 ft
1500m / 5 km
500 / 1000 ft
800 / 1500m
200 / 500 ft
< 800m
< 200 ft
Simboli :   Temporali  Nebbia  Neve Forte  Precipitazioni Forti  Vento > 20 kt
SIGMETs :   Varie  Temporali  Ghiacco  Turbolenza  Onda orograficha  Ceneri Vulcaniche






- Altitudine del aeroporto : 436 ft
- Codice IATA : ANG


LFBU - Angoulême Brie Champniers

ULTIMO METAR :
  • 271830Z AUTO 19004KT 140V230 CAVOK 09/06 Q1016 NOSIG

METARs OBSOLETI :
  • 271800Z AUTO 16007KT 120V180 CAVOK 09/05 Q1016 NOSIG
  • 271730Z AUTO 15008KT 130V200 CAVOK 09/05 Q1016 NOSIG
  • 271700Z AUTO 15009KT CAVOK 10/05 Q1016 NOSIG
  • 271630Z AUTO 14009KT 110V180 CAVOK 10/05 Q1016 NOSIG
  • 271600Z AUTO 16006KT 130V190 CAVOK 10/05 Q1016 NOSIG

TAF TAF LFBU
Valido dal 27 a 18 ore il 28 a 18 ore UTC


271700Z 2718/2818 15010KT CAVOK
BECMG 2720/2722 BKN020
TEMPO 2722/2802 3000 RA BKN005 OVC015
PROB40
TEMPO 2802/2810 -SHRA SCT018TCU
TEMPO 2810/2815 27015G25KT 3000 SHRA BKN008 BKN018TCU



MetMap, La meteo Aeronautica in un colpo d'occhio ! - Copyright ORBIFLY Dicembre 2007 - Disclaimer

ORBIFLY MET'MAP TEAM :

Programmazione e sviluppo : Alexandra Zaïnal
Concezione : Baudouin d'Aumeries
Supporto tecnico e logistico : Manuel Goepfert
Aiuto : Marc-Olivier Méhu
Aiuto per la traduzione : Arnaldo La Scala




FONTI E CREDITI :

   NOAA